Saint Eleanors, Canada
Current Conditions -  °F | °C
As of 5:00 AM on Thursday 18 Dec 2014 (Local Time) from CYYG Reporting Station
Light Rain Light Rain  
Wind Chill: 27°   Ceiling: 500
Heat Index: 36°   Visibility: 5mi
Dew Point: 36°   Wind: 14mph
Humidity: 100%   Direction: 60°ENE
Pressure: 29.45"   Gusts: 22mph
Location:  46.42°N, 63.82°W
Report Text: CYYG 180900Z 06012G19KT 5SM -RA BR BKN005 OVC020 02/02 A2945 RMK SF6NS2 /R11/ SLP974
Loading
Personal Weather Stations






























Interactive Weather Map New forecast layout! Learn more

10-Day Weather Forecast

Advertisements
Track Severe Weather on mobile